Hartland Point — ZIQS6 — position and weather

sailwx.info

Track history (hours):
 
Tides and Currents Weather Stations Pressure Air Temp Water Temp Dewpoint Dewpoint Depression Visibility Wind Speed Wind Dir Waves Ship Positions

Hartland Point

Last reported at 2015-Jul-04 02:33 UTC. Time now 2015-Jul-04 03:26 UTC.
Position N 50°08' W 003°39'.

Length 193 m; draft 5.7 m.

Type: Ship. MMSI: 235505000.

Date/timePositionNaut miles runAvg speedWind from/ knotsBaromVisibWave heightAir tempDewpointWater temp
2015-Jul-04 02:33N 50°08' W 003°39'1616.0
2015-Jul-04 01:33N 50°12' W 003°15'1515.2
2015-Jul-04 00:33N 50°15' W 002°51'1514.8
2015-Jul-03 23:32N 50°19' W 002°29'2412.4
2015-Jul-03 21:33N 50°25' W 001°52'2511.5
2015-Jul-03 19:24N 50°32' W 001°14'1011.7
2015-Jul-03 18:33N 50°35' W 000°59'1212.0
2015-Jul-03 17:34N 50°46' W 001°09'1110.9
2015-Jul-03 16:33N 50°52' W 001°23'2 2.2
2015-Jul-03 15:32N 50°54' W 001°25'0 0.0
2015-Jul-03 14:31N 50°54' W 001°25'0 0.0
2015-Jul-03 13:31N 50°54' W 001°25'0 0.0
2015-Jul-03 12:33N 50°54' W 001°25'0 0.0
2015-Jul-03 11:33N 50°54' W 001°25'0 0.0
2015-Jul-03 10:29N 50°54' W 001°25'0 0.0
2015-Jul-03 09:32N 50°54' W 001°25'0 0.0
2015-Jul-03 08:32N 50°54' W 001°25'0 0.0
2015-Jul-03 07:28N 50°54' W 001°25'0 0.0
2015-Jul-03 06:28N 50°54' W 001°25'0 0.0
2015-Jul-03 05:21N 50°54' W 001°25'0 0.0
2015-Jul-03 04:21N 50°54' W 001°25'0 0.0
2015-Jul-03 03:32N 50°54' W 001°25'0 0.0
2015-Jul-03 02:33N 50°54' W 001°25'0 0.0
2015-Jul-03 01:32N 50°54' W 001°25'0 0.0
2015-Jul-03 00:31N 50°54' W 001°25'0 0.0
2015-Jul-02 23:31N 50°54' W 001°25'0 0.0
2015-Jul-02 22:30N 50°54' W 001°25'0 0.0
2015-Jul-02 21:30N 50°54' W 001°25'0 0.0
2015-Jul-02 20:32N 50°54' W 001°25'0 0.0
2015-Jul-02 19:32N 50°54' W 001°25'0 0.0
2015-Jul-02 18:28N 50°54' W 001°25'0 0.0
2015-Jul-02 17:28N 50°54' W 001°25'0 0.0
2015-Jul-02 16:28N 50°54' W 001°25'0 0.0
2015-Jul-02 15:33N 50°54' W 001°25'0 0.0
2015-Jul-02 14:30N 50°54' W 001°25'0 0.0
2015-Jul-02 13:32N 50°54' W 001°25'0 0.0
2015-Jul-02 12:32N 50°54' W 001°25'0 0.0
2015-Jul-02 11:31N 50°54' W 001°25'0 0.0
2015-Jul-02 10:22N 50°54' W 001°25'0 0.0
2015-Jul-02 09:31N 50°54' W 001°25'0 0.0
2015-Jul-02 08:30N 50°54' W 001°25'0 0.0
2015-Jul-02 07:33N 50°54' W 001°25'0 0.0
2015-Jul-02 06:32N 50°54' W 001°25'0 0.0
2015-Jul-02 05:32N 50°54' W 001°25'0 0.0
2015-Jul-02 04:33N 50°54' W 001°25'7 7.2
2015-Jul-02 03:34N 50°48' W 001°17'1313.4
2015-Jul-02 02:34N 50°42' W 000°59'1312.8
2015-Jul-02 01:33N 50°32' W 001°11'1515.0
2015-Jul-02 00:34N 50°27' W 001°33'1615.6
2015-Jul-01 23:33N 50°21' W 001°56'1613.3
2015-Jul-01 22:23N 50°10' W 002°14'1313.6
2015-Jul-01 21:26N 49°58' W 002°17'1415.8
2015-Jul-01 20:32N 49°53' W 002°38'1615.9
2015-Jul-01 19:33N 49°47' W 003°00'21114.1
2015-Jul-01 04:33N 47°17' W 006°46'28011.1
2015-Jun-30 03:24N 43°08' W 009°48'1314.5
2015-Jun-30 02:31N 42°56' W 009°48'1414.3
2015-Jun-30 01:33N 42°42' W 009°48'1614.3
2015-Jun-30 00:26N 42°26' W 009°48'1314.4
2015-Jun-29 23:33N 42°13' W 009°48'2914.6
2015-Jun-29 21:32N 41°44' W 009°49'1414.5
2015-Jun-29 20:34N 41°30' W 009°49'1414.1
2015-Jun-29 19:32N 41°15' W 009°49'1414.1
2015-Jun-29 18:33N 41°02' W 009°49'1413.9
2015-Jun-29 17:33N 40°48' W 009°49'1413.9
2015-Jun-29 16:33N 40°34' W 009°50'1413.8
2015-Jun-29 15:33N 40°20' W 009°50'1413.9
2015-Jun-29 14:33N 40°06' W 009°51'1414.1
2015-Jun-29 13:33N 39°52' W 009°52'1414.3
2015-Jun-29 12:33N 39°38' W 009°51'1414.1
2015-Jun-29 11:33N 39°24' W 009°51'1514.5
2015-Jun-29 10:33N 39°09' W 009°51'1414.2
2015-Jun-29 09:33N 38°55' W 009°51'1414.3
2015-Jun-29 08:33N 38°41' W 009°51'1413.6
2015-Jun-29 07:33N 38°27' W 009°47'1413.8
2015-Jun-29 06:33N 38°14' W 009°43'1413.8
2015-Jun-29 05:33N 38°01' W 009°38'1414.1
2015-Jun-29 04:33N 37°47' W 009°33'1414.0
2015-Jun-29 03:34N 37°34' W 009°29'1414.1
2015-Jun-29 02:34N 37°20' W 009°24'1413.6
2015-Jun-29 01:33N 37°06' W 009°22'1413.5
2015-Jun-29 00:33N 36°53' W 009°18'1413.9
2015-Jun-28 23:33N 36°44' W 009°05'1414.2
2015-Jun-28 22:33N 36°40' W 008°48'1414.2
2015-Jun-28 21:33N 36°35' W 008°32'1714.3
2015-Jun-28 20:21N 36°29' W 008°11'1114.3
2015-Jun-28 19:34N 36°26' W 007°58'1414.4
2015-Jun-28 18:33N 36°21' W 007°41'1514.4
2015-Jun-28 17:32N 36°16' W 007°24'1414.5
2015-Jun-28 16:33N 36°12' W 007°07'1414.3
2015-Jun-28 15:33N 36°08' W 006°50'1414.4
2015-Jun-28 14:33N 36°03' W 006°33'1414.0
2015-Jun-28 13:33N 35°59' W 006°17'1413.6
2015-Jun-28 12:33N 35°58' W 006°00'174 9.6
2015-Jun-27 18:28N 36°24' W 002°28'1415.0
2015-Jun-27 17:33N 36°26' W 002°11'1515.0
2015-Jun-27 16:33N 36°28' W 001°52'1515.1
2015-Jun-27 15:33N 36°30' W 001°34'1514.9
2015-Jun-27 14:33N 36°32' W 001°15'1514.9
2015-Jun-27 13:33N 36°34' W 000°57'1514.7
2015-Jun-27 12:33N 36°36' W 000°39'1514.7
2015-Jun-27 11:33N 36°38' W 000°21'1514.6
2015-Jun-27 10:33N 36°40' W 000°03'1514.7
2015-Jun-27 09:33N 36°42' E 000°16'1414.3
2015-Jun-27 08:33N 36°45' E 000°33'1514.5
2015-Jun-27 07:33N 36°46' E 000°51'1514.7
2015-Jun-27 06:33N 36°48' E 001°09'1615.0
2015-Jun-27 05:27N 36°50' E 001°30'1314.5
2015-Jun-27 04:33N 36°52' E 001°46'1414.5
2015-Jun-27 03:33N 36°55' E 002°04'1414.4
2015-Jun-27 02:33N 36°57' E 002°21'1414.3
2015-Jun-27 01:33N 36°59' E 002°39'1414.1
2015-Jun-27 00:33N 37°01' E 002°57'1414.1
2015-Jun-26 23:34N 37°04' E 003°14'1514.9
2015-Jun-26 22:33N 37°06' E 003°32'1515.2
2015-Jun-26 21:33N 37°09' E 003°51'1514.9
2015-Jun-26 20:33N 37°09' E 004°10'6514.6
2015-Jun-26 16:08N 37°17' E 005°30'915.2
2015-Jun-26 15:33N 37°18' E 005°41'25914.4
2015-Jun-25 21:33N 37°28' E 011°07'1414.2
2015-Jun-25 20:33N 37°22' E 011°23'1814.0
2015-Jun-25 19:18N 37°13' E 011°41'2614.0
2015-Jun-25 17:27N 37°01' E 012°10'1314.1
2015-Jun-25 16:33N 36°57' E 012°25'1414.2
2015-Jun-25 15:33N 36°53' E 012°42'1414.4
2015-Jun-25 14:33N 36°49' E 012°59'1514.7
2015-Jun-25 13:33N 36°44' E 013°17'1514.9
2015-Jun-25 12:33N 36°40' E 013°35'1515.0
2015-Jun-25 11:33N 36°35' E 013°52'1514.9
2015-Jun-25 10:33N 36°31' E 014°10'1514.9
2015-Jun-25 09:33N 36°27' E 014°28'1514.8
2015-Jun-25 08:33N 36°23' E 014°46'4714.7
2015-Jun-25 05:21N 36°13' E 015°43'2714.8
2015-Jun-25 03:33N 36°06' E 016°15'1514.8
2015-Jun-25 02:33N 36°03' E 016°33'1714.5
2015-Jun-25 01:21N 36°00' E 016°54'1214.5
2015-Jun-25 00:33N 35°59' E 017°08'1413.7
2015-Jun-24 23:33N 35°54' E 017°24'1414.5
2015-Jun-24 22:33N 35°51' E 017°41'2014.4
2015-Jun-24 21:11N 35°46' E 018°05'1014.2
2015-Jun-24 20:30N 35°44' E 018°17'1914.2
2015-Jun-24 19:10N 35°40' E 018°40'  
Track history (hours):
 
Tides and Currents Weather Stations Pressure Air Temp Water Temp Dewpoint Dewpoint Depression Visibility Wind Speed Wind Dir Waves Ship Positions

Hartland Point

Last reported at 2015-Jul-04 02:33 UTC. Time now 2015-Jul-04 03:26 UTC.
Position N 50°08' W 003°39'.

Length 193 m; draft 5.7 m.

Type: Ship. MMSI: 235505000.

Date/timePositionNaut miles runAvg speedWind from/ knotsBaromVisibWave heightAir tempDewpointWater temp
2015-Jul-04 02:33N 50°08' W 003°39'1616.0
2015-Jul-04 01:33N 50°12' W 003°15'1515.2
2015-Jul-04 00:33N 50°15' W 002°51'1514.8
2015-Jul-03 23:32N 50°19' W 002°29'2412.4
2015-Jul-03 21:33N 50°25' W 001°52'2511.5
2015-Jul-03 19:24N 50°32' W 001°14'1011.7
2015-Jul-03 18:33N 50°35' W 000°59'1212.0
2015-Jul-03 17:34N 50°46' W 001°09'1110.9
2015-Jul-03 16:33N 50°52' W 001°23'2 2.2
2015-Jul-03 15:32N 50°54' W 001°25'0 0.0
2015-Jul-03 14:31N 50°54' W 001°25'0 0.0
2015-Jul-03 13:31N 50°54' W 001°25'0 0.0
2015-Jul-03 12:33N 50°54' W 001°25'0 0.0
2015-Jul-03 11:33N 50°54' W 001°25'0 0.0
2015-Jul-03 10:29N 50°54' W 001°25'0 0.0
2015-Jul-03 09:32N 50°54' W 001°25'0 0.0
2015-Jul-03 08:32N 50°54' W 001°25'0 0.0
2015-Jul-03 07:28N 50°54' W 001°25'0 0.0
2015-Jul-03 06:28N 50°54' W 001°25'0 0.0
2015-Jul-03 05:21N 50°54' W 001°25'0 0.0
2015-Jul-03 04:21N 50°54' W 001°25'0 0.0
2015-Jul-03 03:32N 50°54' W 001°25'0 0.0
2015-Jul-03 02:33N 50°54' W 001°25'0 0.0
2015-Jul-03 01:32N 50°54' W 001°25'0 0.0
2015-Jul-03 00:31N 50°54' W 001°25'0 0.0
2015-Jul-02 23:31N 50°54' W 001°25'0 0.0
2015-Jul-02 22:30N 50°54' W 001°25'0 0.0
2015-Jul-02 21:30N 50°54' W 001°25'0 0.0
2015-Jul-02 20:32N 50°54' W 001°25'0 0.0
2015-Jul-02 19:32N 50°54' W 001°25'0 0.0
2015-Jul-02 18:28N 50°54' W 001°25'0 0.0
2015-Jul-02 17:28N 50°54' W 001°25'0 0.0
2015-Jul-02 16:28N 50°54' W 001°25'0 0.0
2015-Jul-02 15:33N 50°54' W 001°25'0 0.0
2015-Jul-02 14:30N 50°54' W 001°25'0 0.0
2015-Jul-02 13:32N 50°54' W 001°25'0 0.0
2015-Jul-02 12:32N 50°54' W 001°25'0 0.0
2015-Jul-02 11:31N 50°54' W 001°25'0 0.0
2015-Jul-02 10:22N 50°54' W 001°25'0 0.0
2015-Jul-02 09:31N 50°54' W 001°25'0 0.0
2015-Jul-02 08:30N 50°54' W 001°25'0 0.0
2015-Jul-02 07:33N 50°54' W 001°25'0 0.0
2015-Jul-02 06:32N 50°54' W 001°25'0 0.0
2015-Jul-02 05:32N 50°54' W 001°25'0 0.0
2015-Jul-02 04:33N 50°54' W 001°25'7 7.2
2015-Jul-02 03:34N 50°48' W 001°17'1313.4
2015-Jul-02 02:34N 50°42' W 000°59'1312.8
2015-Jul-02 01:33N 50°32' W 001°11'1515.0
2015-Jul-02 00:34N 50°27' W 001°33'1615.6
2015-Jul-01 23:33N 50°21' W 001°56'1613.3
2015-Jul-01 22:23N 50°10' W 002°14'1313.6
2015-Jul-01 21:26N 49°58' W 002°17'1415.8
2015-Jul-01 20:32N 49°53' W 002°38'1615.9
2015-Jul-01 19:33N 49°47' W 003°00'21114.1
2015-Jul-01 04:33N 47°17' W 006°46'28011.1
2015-Jun-30 03:24N 43°08' W 009°48'1314.5
2015-Jun-30 02:31N 42°56' W 009°48'1414.3
2015-Jun-30 01:33N 42°42' W 009°48'1614.3
2015-Jun-30 00:26N 42°26' W 009°48'1314.4
2015-Jun-29 23:33N 42°13' W 009°48'2914.6
2015-Jun-29 21:32N 41°44' W 009°49'1414.5
2015-Jun-29 20:34N 41°30' W 009°49'1414.1
2015-Jun-29 19:32N 41°15' W 009°49'1414.1
2015-Jun-29 18:33N 41°02' W 009°49'1413.9
2015-Jun-29 17:33N 40°48' W 009°49'1413.9
2015-Jun-29 16:33N 40°34' W 009°50'1413.8
2015-Jun-29 15:33N 40°20' W 009°50'1413.9
2015-Jun-29 14:33N 40°06' W 009°51'1414.1
2015-Jun-29 13:33N 39°52' W 009°52'1414.3
2015-Jun-29 12:33N 39°38' W 009°51'1414.1
2015-Jun-29 11:33N 39°24' W 009°51'1514.5
2015-Jun-29 10:33N 39°09' W 009°51'1414.2
2015-Jun-29 09:33N 38°55' W 009°51'1414.3
2015-Jun-29 08:33N 38°41' W 009°51'1413.6
2015-Jun-29 07:33N 38°27' W 009°47'1413.8
2015-Jun-29 06:33N 38°14' W 009°43'1413.8
2015-Jun-29 05:33N 38°01' W 009°38'1414.1
2015-Jun-29 04:33N 37°47' W 009°33'1414.0
2015-Jun-29 03:34N 37°34' W 009°29'1414.1
2015-Jun-29 02:34N 37°20' W 009°24'1413.6
2015-Jun-29 01:33N 37°06' W 009°22'1413.5
2015-Jun-29 00:33N 36°53' W 009°18'1413.9
2015-Jun-28 23:33N 36°44' W 009°05'1414.2
2015-Jun-28 22:33N 36°40' W 008°48'1414.2
2015-Jun-28 21:33N 36°35' W 008°32'1714.3
2015-Jun-28 20:21N 36°29' W 008°11'1114.3
2015-Jun-28 19:34N 36°26' W 007°58'1414.4
2015-Jun-28 18:33N 36°21' W 007°41'1514.4
2015-Jun-28 17:32N 36°16' W 007°24'1414.5
2015-Jun-28 16:33N 36°12' W 007°07'1414.3
2015-Jun-28 15:33N 36°08' W 006°50'1414.4
2015-Jun-28 14:33N 36°03' W 006°33'1414.0
2015-Jun-28 13:33N 35°59' W 006°17'1413.6
2015-Jun-28 12:33N 35°58' W 006°00'174 9.6
2015-Jun-27 18:28N 36°24' W 002°28'1415.0
2015-Jun-27 17:33N 36°26' W 002°11'1515.0
2015-Jun-27 16:33N 36°28' W 001°52'1515.1
2015-Jun-27 15:33N 36°30' W 001°34'1514.9
2015-Jun-27 14:33N 36°32' W 001°15'1514.9
2015-Jun-27 13:33N 36°34' W 000°57'1514.7
2015-Jun-27 12:33N 36°36' W 000°39'1514.7
2015-Jun-27 11:33N 36°38' W 000°21'1514.6
2015-Jun-27 10:33N 36°40' W 000°03'1514.7
2015-Jun-27 09:33N 36°42' E 000°16'1414.3
2015-Jun-27 08:33N 36°45' E 000°33'1514.5
2015-Jun-27 07:33N 36°46' E 000°51'1514.7
2015-Jun-27 06:33N 36°48' E 001°09'1615.0
2015-Jun-27 05:27N 36°50' E 001°30'1314.5
2015-Jun-27 04:33N 36°52' E 001°46'1414.5
2015-Jun-27 03:33N 36°55' E 002°04'1414.4
2015-Jun-27 02:33N 36°57' E 002°21'1414.3
2015-Jun-27 01:33N 36°59' E 002°39'1414.1
2015-Jun-27 00:33N 37°01' E 002°57'1414.1
2015-Jun-26 23:34N 37°04' E 003°14'1514.9
2015-Jun-26 22:33N 37°06' E 003°32'1515.2
2015-Jun-26 21:33N 37°09' E 003°51'1514.9
2015-Jun-26 20:33N 37°09' E 004°10'6514.6
2015-Jun-26 16:08N 37°17' E 005°30'915.2
2015-Jun-26 15:33N 37°18' E 005°41'25914.4
2015-Jun-25 21:33N 37°28' E 011°07'1414.2
2015-Jun-25 20:33N 37°22' E 011°23'1814.0
2015-Jun-25 19:18N 37°13' E 011°41'2614.0
2015-Jun-25 17:27N 37°01' E 012°10'1314.1
2015-Jun-25 16:33N 36°57' E 012°25'1414.2
2015-Jun-25 15:33N 36°53' E 012°42'1414.4
2015-Jun-25 14:33N 36°49' E 012°59'1514.7
2015-Jun-25 13:33N 36°44' E 013°17'1514.9
2015-Jun-25 12:33N 36°40' E 013°35'1515.0
2015-Jun-25 11:33N 36°35' E 013°52'1514.9
2015-Jun-25 10:33N 36°31' E 014°10'1514.9
2015-Jun-25 09:33N 36°27' E 014°28'1514.8
2015-Jun-25 08:33N 36°23' E 014°46'4714.7
2015-Jun-25 05:21N 36°13' E 015°43'2714.8
2015-Jun-25 03:33N 36°06' E 016°15'1514.8
2015-Jun-25 02:33N 36°03' E 016°33'1714.5
2015-Jun-25 01:21N 36°00' E 016°54'1214.5
2015-Jun-25 00:33N 35°59' E 017°08'1413.7
2015-Jun-24 23:33N 35°54' E 017°24'1414.5
2015-Jun-24 22:33N 35°51' E 017°41'2014.4
2015-Jun-24 21:11N 35°46' E 018°05'1014.2
2015-Jun-24 20:30N 35°44' E 018°17'1914.2
2015-Jun-24 19:10N 35°40' E 018°40'  

Dump ship's entire track history